Time;durP1;ratioP1;P1;durP2;ratioP2;P2;SDS_P1;SDS_P2;PMS_P1;PMS_P2;Temp;Humidity;BMP_temperature;BMP_pressure;BME280_temperature;BME280_humidity;BME280_pressure;Samples;Min_cycle;Max_cycle;Signal;HPM_P1;HPM_P2
2021/12/23 00:01:21;;;;;;;26.63;19.63;;;;;;;;;;5051174;28;24426;-56
2021/12/23 00:03:46;;;;;;;25.57;19.90;;;;;;;;;;5059304;28;24443;-57
2021/12/23 00:06:12;;;;;;;24.70;19.93;;;;;;;;;;5046079;28;24510;-57
2021/12/23 00:08:37;;;;;;;25.98;18.73;;;;;;;;;;5048268;28;24414;-57
2021/12/23 00:11:02;;;;;;;26.10;19.97;;;;;;;;;;5058697;28;25436;-60
2021/12/23 00:13:27;;;;;;;28.30;21.17;;;;;;;;;;5049073;28;24423;-57
2021/12/23 00:18:44;;;;;;;24.50;18.60;;;;;;;;;;5054381;28;24514;-57
2021/12/23 00:23:57;;;;;;;27.48;20.70;;;;;;;;;;5044111;28;24494;-57
2021/12/23 00:26:22;;;;;;;21.83;18.10;;;;;;;;;;5044274;28;24415;-57
2021/12/23 00:28:47;;;;;;;22.70;18.80;;;;;;;;;;5045352;28;24410;-58
2021/12/23 00:31:14;;;;;;;24.08;17.70;;;;;;;;;;5052996;28;25049;-57
2021/12/23 00:33:40;;;;;;;26.15;20.42;;;;;;;;;;5052436;28;24507;-57
2021/12/23 00:36:07;;;;;;;24.63;19.70;;;;;;;;;;5052055;28;24422;-57
2021/12/23 00:38:40;;;;;;;25.10;18.75;;;;;;;;;;5042435;28;24518;-56
2021/12/23 00:41:05;;;;;;;25.05;19.20;;;;;;;;;;5049787;28;24431;-57
2021/12/23 00:43:31;;;;;;;23.08;17.30;;;;;;;;;;5044431;28;24762;-57
2021/12/23 00:45:57;;;;;;;22.23;18.40;;;;;;;;;;5049728;28;24468;-57
2021/12/23 00:48:23;;;;;;;23.40;18.10;;;;;;;;;;5047460;28;24991;-57
2021/12/23 00:50:48;;;;;;;21.70;17.90;;;;;;;;;;5057173;28;24439;-56
2021/12/23 00:53:19;;;;;;;24.70;18.70;;;;;;;;;;5044247;28;24441;-56
2021/12/23 00:55:47;;;;;;;23.50;18.23;;;;;;;;;;5041915;28;24427;-57
2021/12/23 00:58:12;;;;;;;24.52;18.20;;;;;;;;;;5042463;28;24944;-57
2021/12/23 01:00:37;;;;;;;21.73;17.80;;;;;;;;;;5057269;28;24426;-57
2021/12/23 01:03:03;;;;;;;19.80;17.50;;;;;;;;;;5046578;28;24506;-57
2021/12/23 01:05:29;;;;;;;26.00;18.83;;;;;;;;;;5048078;28;25081;-57
2021/12/23 01:07:54;;;;;;;22.20;17.50;;;;;;;;;;5043621;28;24419;-57
2021/12/23 01:10:21;;;;;;;26.30;19.27;;;;;;;;;;5053915;28;24859;-57
2021/12/23 01:12:49;;;;;;;23.90;18.45;;;;;;;;;;5046573;28;24407;-57
2021/12/23 01:15:27;;;;;;;21.13;17.73;;;;;;;;;;5045467;28;24774;-57
2021/12/23 01:17:56;;;;;;;23.75;18.40;;;;;;;;;;5050915;28;24457;-57
2021/12/23 01:20:28;;;;;;;21.08;17.60;;;;;;;;;;5055415;28;24418;-58
2021/12/23 01:22:54;;;;;;;21.77;17.10;;;;;;;;;;5055023;28;24419;-57
2021/12/23 01:25:19;;;;;;;20.85;17.30;;;;;;;;;;5057256;28;24476;-57
2021/12/23 01:27:44;;;;;;;22.55;17.33;;;;;;;;;;5063041;28;24406;-57
2021/12/23 01:30:10;;;;;;;20.45;16.80;;;;;;;;;;5055379;28;24442;-58
2021/12/23 01:32:35;;;;;;;21.90;17.70;;;;;;;;;;5050845;28;25042;-57
2021/12/23 01:35:00;;;;;;;22.20;17.60;;;;;;;;;;5045564;28;25202;-58
2021/12/23 01:37:25;;;;;;;25.50;19.87;;;;;;;;;;5054209;28;24924;-57
2021/12/23 01:39:51;;;;;;;24.10;19.10;;;;;;;;;;5050007;28;24960;-57
2021/12/23 01:42:16;;;;;;;22.70;17.90;;;;;;;;;;5045499;28;24737;-57
2021/12/23 01:44:41;;;;;;;19.40;16.47;;;;;;;;;;5045808;28;24872;-57
2021/12/23 01:47:06;;;;;;;20.23;16.52;;;;;;;;;;5047700;28;24454;-57
2021/12/23 01:49:31;;;;;;;21.67;17.27;;;;;;;;;;5051201;28;24523;-57
2021/12/23 01:51:57;;;;;;;23.57;18.77;;;;;;;;;;5043677;28;24526;-57
2021/12/23 01:54:22;;;;;;;21.67;17.20;;;;;;;;;;5048684;28;24411;-57
2021/12/23 01:56:47;;;;;;;22.65;17.88;;;;;;;;;;5060955;28;24486;-57
2021/12/23 01:59:12;;;;;;;24.47;19.03;;;;;;;;;;5058538;28;24459;-57
2021/12/23 02:01:41;;;;;;;24.10;17.53;;;;;;;;;;5042553;28;24454;-57
2021/12/23 02:04:06;;;;;;;23.50;18.40;;;;;;;;;;5050659;28;24648;-57
2021/12/23 02:06:31;;;;;;;22.52;17.80;;;;;;;;;;5057082;28;24663;-57
2021/12/23 02:08:56;;;;;;;21.23;17.13;;;;;;;;;;5042263;28;25010;-57
2021/12/23 02:11:22;;;;;;;22.80;17.80;;;;;;;;;;5054395;28;24872;-56
2021/12/23 02:13:47;;;;;;;20.47;17.30;;;;;;;;;;5040253;28;24431;-57
2021/12/23 02:16:12;;;;;;;23.00;17.27;;;;;;;;;;5055888;28;24429;-57
2021/12/23 02:18:37;;;;;;;21.07;17.07;;;;;;;;;;5061145;28;24414;-57
2021/12/23 02:21:03;;;;;;;23.30;18.10;;;;;;;;;;5046833;28;24844;-57
2021/12/23 02:23:28;;;;;;;23.23;17.90;;;;;;;;;;5047436;28;24825;-57
2021/12/23 02:25:54;;;;;;;23.23;18.23;;;;;;;;;;5050307;28;24687;-57
2021/12/23 02:28:20;;;;;;;25.10;17.60;;;;;;;;;;5050056;28;24514;-57
2021/12/23 02:30:51;;;;;;;22.33;18.63;;;;;;;;;;5056634;28;24437;-57
2021/12/23 02:33:17;;;;;;;22.92;18.30;;;;;;;;;;5045862;28;25015;-57
2021/12/23 02:35:42;;;;;;;22.45;18.60;;;;;;;;;;5055013;28;24925;-57
2021/12/23 02:38:07;;;;;;;22.00;17.80;;;;;;;;;;5055911;28;24971;-58
2021/12/23 02:40:34;;;;;;;22.40;18.67;;;;;;;;;;5046844;28;24479;-58
2021/12/23 02:43:11;;;;;;;23.77;18.13;;;;;;;;;;5046742;28;24426;-57
2021/12/23 02:45:37;;;;;;;24.42;18.73;;;;;;;;;;5045171;28;24461;-58
2021/12/23 02:48:02;;;;;;;22.80;18.47;;;;;;;;;;5061572;28;24789;-57
2021/12/23 02:50:27;;;;;;;23.25;19.00;;;;;;;;;;5051444;28;24415;-57
2021/12/23 02:52:53;;;;;;;25.30;21.00;;;;;;;;;;5049403;28;24811;-57
2021/12/23 02:55:19;;;;;;;21.50;19.13;;;;;;;;;;5055119;28;25484;-57
2021/12/23 02:57:44;;;;;;;25.40;20.45;;;;;;;;;;5046549;28;24999;-57
2021/12/23 03:00:10;;;;;;;23.97;20.73;;;;;;;;;;5047640;28;24477;-57
2021/12/23 03:02:39;;;;;;;26.63;21.17;;;;;;;;;;5048324;28;24770;-57
2021/12/23 03:05:05;;;;;;;23.80;19.40;;;;;;;;;;5051099;28;24450;-57
2021/12/23 03:07:30;;;;;;;21.65;19.35;;;;;;;;;;5048975;28;24462;-57
2021/12/23 03:09:55;;;;;;;22.40;18.93;;;;;;;;;;5052064;28;24465;-57
2021/12/23 03:12:20;;;;;;;23.50;20.17;;;;;;;;;;5059926;28;24451;-57
2021/12/23 03:14:46;;;;;;;24.30;21.33;;;;;;;;;;5055824;28;25083;-57
2021/12/23 03:17:11;;;;;;;22.42;19.60;;;;;;;;;;5056256;28;24407;-57
2021/12/23 03:19:36;;;;;;;23.87;20.53;;;;;;;;;;5042179;28;24451;-57
2021/12/23 03:22:01;;;;;;;24.70;21.00;;;;;;;;;;5051902;28;24422;-57
2021/12/23 03:24:26;;;;;;;22.97;20.30;;;;;;;;;;5043903;28;24422;-57
2021/12/23 03:26:51;;;;;;;23.15;19.50;;;;;;;;;;5050173;28;24422;-57
2021/12/23 03:29:17;;;;;;;25.00;20.30;;;;;;;;;;5045011;28;24482;-57
2021/12/23 03:31:42;;;;;;;25.05;21.15;;;;;;;;;;5048102;28;24913;-57
2021/12/23 03:39:16;;;;;;;25.00;20.85;;;;;;;;;;5093456;28;25258;-82
2021/12/23 03:41:41;;;;;;;25.27;19.85;;;;;;;;;;5096123;28;24442;-81
2021/12/23 03:44:07;;;;;;;24.10;20.23;;;;;;;;;;5108954;28;24569;-81
2021/12/23 03:46:37;;;;;;;27.88;22.02;;;;;;;;;;5100638;28;24884;-81
2021/12/23 03:49:02;;;;;;;27.30;21.27;;;;;;;;;;5122347;28;24638;-81
2021/12/23 03:51:27;;;;;;;25.20;20.37;;;;;;;;;;5122550;28;24433;-81
2021/12/23 03:53:52;;;;;;;27.27;22.20;;;;;;;;;;5105802;28;24424;-81
2021/12/23 03:56:18;;;;;;;25.03;19.53;;;;;;;;;;5123589;28;24425;-81
2021/12/23 03:58:44;;;;;;;24.13;20.37;;;;;;;;;;5115924;28;24377;-82
2021/12/23 04:01:09;;;;;;;28.60;21.93;;;;;;;;;;5112831;28;24481;-81
2021/12/23 04:03:34;;;;;;;26.10;21.37;;;;;;;;;;5110238;28;24965;-81
2021/12/23 04:05:59;;;;;;;25.17;20.97;;;;;;;;;;5095144;28;24456;-81
2021/12/23 04:08:24;;;;;;;24.13;20.90;;;;;;;;;;5111915;28;24471;-81
2021/12/23 04:10:49;;;;;;;27.80;21.17;;;;;;;;;;5112839;28;24451;-82
2021/12/23 04:13:15;;;;;;;25.40;20.80;;;;;;;;;;5115971;28;24405;-82
2021/12/23 04:15:40;;;;;;;27.47;21.97;;;;;;;;;;5121247;27;24774;-82
2021/12/23 04:18:05;;;;;;;28.73;21.20;;;;;;;;;;5121970;28;24473;-81
2021/12/23 04:20:35;;;;;;;26.83;22.10;;;;;;;;;;5123402;28;24452;-82
2021/12/23 04:23:00;;;;;;;26.90;21.60;;;;;;;;;;5121795;28;24433;-82
2021/12/23 04:25:26;;;;;;;28.27;22.93;;;;;;;;;;5119560;28;24417;-82
2021/12/23 04:27:53;;;;;;;25.55;21.67;;;;;;;;;;5120383;28;24431;-82
2021/12/23 04:30:18;;;;;;;28.63;22.42;;;;;;;;;;5118020;28;24436;-82
2021/12/23 04:32:44;;;;;;;30.92;22.27;;;;;;;;;;5120016;28;24457;-82
2021/12/23 04:35:09;;;;;;;27.13;21.80;;;;;;;;;;5122124;28;24782;-82
2021/12/23 04:37:34;;;;;;;28.10;23.20;;;;;;;;;;5100810;28;24417;-81
2021/12/23 04:40:00;;;;;;;26.33;22.08;;;;;;;;;;5116355;28;24449;-81
2021/12/23 04:42:26;;;;;;;27.15;20.70;;;;;;;;;;5110921;28;24492;-81
2021/12/23 04:44:52;;;;;;;27.17;21.40;;;;;;;;;;5109172;28;22461;-82
2021/12/23 04:47:18;;;;;;;27.37;20.90;;;;;;;;;;5113240;28;24505;-81
2021/12/23 04:49:43;;;;;;;29.33;22.70;;;;;;;;;;5111127;28;24632;-81
2021/12/23 04:52:08;;;;;;;28.70;22.40;;;;;;;;;;5113281;28;24808;-80
2021/12/23 04:54:33;;;;;;;28.38;22.55;;;;;;;;;;5113873;28;24409;-81
2021/12/23 04:56:59;;;;;;;27.63;22.30;;;;;;;;;;5114140;28;24467;-81
2021/12/23 04:59:24;;;;;;;28.88;22.35;;;;;;;;;;5116692;28;24500;-81
2021/12/23 05:01:50;;;;;;;27.10;22.70;;;;;;;;;;5115514;28;24981;-81
2021/12/23 05:04:15;;;;;;;27.07;21.30;;;;;;;;;;5116826;28;24428;-81
2021/12/23 05:06:41;;;;;;;28.80;22.60;;;;;;;;;;5116113;28;24794;-81
2021/12/23 05:09:06;;;;;;;24.70;19.77;;;;;;;;;;5115706;28;24478;-81
2021/12/23 05:11:31;;;;;;;28.53;23.10;;;;;;;;;;5114930;27;24972;-81
2021/12/23 05:13:56;;;;;;;28.20;21.13;;;;;;;;;;5092806;28;24428;-81
2021/12/23 05:16:22;;;;;;;28.30;21.67;;;;;;;;;;5114462;28;24416;-81
2021/12/23 05:18:47;;;;;;;28.30;22.50;;;;;;;;;;5093529;28;24402;-81
2021/12/23 05:21:12;;;;;;;28.07;22.03;;;;;;;;;;5114031;28;24405;-81
2021/12/23 05:23:38;;;;;;;26.42;21.40;;;;;;;;;;5112569;28;24418;-81
2021/12/23 05:26:06;;;;;;;27.58;20.90;;;;;;;;;;5112573;28;24408;-81
2021/12/23 05:28:32;;;;;;;28.17;21.70;;;;;;;;;;5112706;28;24436;-81
2021/12/23 05:30:58;;;;;;;28.77;22.13;;;;;;;;;;5113120;28;24862;-81
2021/12/23 05:33:23;;;;;;;26.15;21.35;;;;;;;;;;5111726;28;24409;-81
2021/12/23 05:35:48;;;;;;;27.10;21.50;;;;;;;;;;5112033;28;24460;-80
2021/12/23 05:38:13;;;;;;;27.77;21.60;;;;;;;;;;5113034;28;24424;-80
2021/12/23 05:40:39;;;;;;;29.57;21.90;;;;;;;;;;5111972;28;24428;-80
2021/12/23 05:43:04;;;;;;;27.37;21.77;;;;;;;;;;5113838;28;24433;-80
2021/12/23 05:45:29;;;;;;;28.50;21.57;;;;;;;;;;5096960;28;24550;-80
2021/12/23 05:47:55;;;;;;;27.77;20.92;;;;;;;;;;5107300;28;24972;-80
2021/12/23 05:50:23;;;;;;;26.92;22.63;;;;;;;;;;5115820;28;24434;-80
2021/12/23 05:52:48;;;;;;;26.70;21.30;;;;;;;;;;5093259;28;24833;-81
2021/12/23 05:55:14;;;;;;;27.20;21.87;;;;;;;;;;5121137;27;24436;-82
2021/12/23 05:57:39;;;;;;;29.20;21.52;;;;;;;;;;5114828;28;24455;-81
2021/12/23 06:00:06;;;;;;;29.05;22.80;;;;;;;;;;5112851;28;25279;-80
2021/12/23 06:02:31;;;;;;;28.10;22.40;;;;;;;;;;5112340;27;24456;-80
2021/12/23 06:04:57;;;;;;;30.33;22.90;;;;;;;;;;5109587;28;24933;-80
2021/12/23 06:07:22;;;;;;;29.25;22.42;;;;;;;;;;5108206;28;24517;-81
2021/12/23 06:09:47;;;;;;;26.77;21.43;;;;;;;;;;5111463;28;24498;-81
2021/12/23 06:12:12;;;;;;;28.83;21.93;;;;;;;;;;5109669;28;24606;-81
2021/12/23 06:14:37;;;;;;;28.83;22.50;;;;;;;;;;5109685;28;24418;-83
2021/12/23 06:17:03;;;;;;;25.80;21.90;;;;;;;;;;5106463;28;24401;-82
2021/12/23 06:19:28;;;;;;;27.10;21.97;;;;;;;;;;5108493;28;24444;-83
2021/12/23 06:21:53;;;;;;;28.97;22.30;;;;;;;;;;5108759;28;24405;-81
2021/12/23 06:24:18;;;;;;;27.87;22.10;;;;;;;;;;5109723;28;24453;-81
2021/12/23 06:26:44;;;;;;;30.00;22.93;;;;;;;;;;5111294;28;24466;-82
2021/12/23 06:29:09;;;;;;;30.00;23.53;;;;;;;;;;5108202;28;24462;-81
2021/12/23 06:31:34;;;;;;;28.73;20.90;;;;;;;;;;5105303;28;24482;-81
2021/12/23 06:33:59;;;;;;;28.73;22.60;;;;;;;;;;5106159;28;24470;-81
2021/12/23 06:36:24;;;;;;;30.27;22.80;;;;;;;;;;5110233;27;24718;-81
2021/12/23 06:38:50;;;;;;;28.87;22.90;;;;;;;;;;5105193;28;24779;-81
2021/12/23 06:41:17;;;;;;;29.73;23.55;;;;;;;;;;5103187;28;24432;-81
2021/12/23 06:43:43;;;;;;;28.57;22.20;;;;;;;;;;5104871;28;24817;-80
2021/12/23 06:46:08;;;;;;;30.50;21.60;;;;;;;;;;5110000;28;24418;-83
2021/12/23 06:48:33;;;;;;;30.07;21.87;;;;;;;;;;5107634;28;24516;-82
2021/12/23 06:50:59;;;;;;;29.70;21.20;;;;;;;;;;5085914;28;24507;-82
2021/12/23 06:53:25;;;;;;;31.33;23.00;;;;;;;;;;5102655;28;24414;-82
2021/12/23 06:55:51;;;;;;;31.93;22.70;;;;;;;;;;5104362;28;24452;-82
2021/12/23 06:58:17;;;;;;;28.00;22.47;;;;;;;;;;5108439;28;24405;-82
2021/12/23 07:00:42;;;;;;;27.93;21.47;;;;;;;;;;5106222;28;24416;-83
2021/12/23 07:03:08;;;;;;;27.40;22.30;;;;;;;;;;5107346;28;24532;-82
2021/12/23 07:05:33;;;;;;;29.20;21.80;;;;;;;;;;5103799;28;24781;-83
2021/12/23 07:08:08;;;;;;;27.33;21.70;;;;;;;;;;5106648;27;24859;-83
2021/12/23 07:10:34;;;;;;;29.02;22.60;;;;;;;;;;5106676;28;24428;-82
2021/12/23 07:13:02;;;;;;;29.43;22.83;;;;;;;;;;5105778;28;24497;-83
2021/12/23 07:15:28;;;;;;;29.60;23.13;;;;;;;;;;5106039;28;24409;-82
2021/12/23 07:17:54;;;;;;;28.50;22.13;;;;;;;;;;5108738;28;24470;-83
2021/12/23 07:20:19;;;;;;;27.87;20.83;;;;;;;;;;5107370;28;24500;-83
2021/12/23 07:22:44;;;;;;;28.53;21.70;;;;;;;;;;5108069;28;24918;-83
2021/12/23 07:25:12;;;;;;;27.73;20.90;;;;;;;;;;5106188;28;24428;-82
2021/12/23 07:27:38;;;;;;;27.80;22.90;;;;;;;;;;5101973;28;24419;-84
2021/12/23 07:30:03;;;;;;;27.45;21.15;;;;;;;;;;5090435;28;24463;-82
2021/12/23 07:32:28;;;;;;;30.08;22.48;;;;;;;;;;5091983;28;24773;-82
2021/12/23 07:34:54;;;;;;;29.90;23.38;;;;;;;;;;5111095;28;24837;-82
2021/12/23 07:37:19;;;;;;;26.02;20.48;;;;;;;;;;5111957;28;24437;-80
2021/12/23 07:39:44;;;;;;;27.60;23.60;;;;;;;;;;5111882;28;24429;-81
2021/12/23 07:42:15;;;;;;;28.90;21.27;;;;;;;;;;5114291;28;24410;-82
2021/12/23 07:44:47;;;;;;;27.67;22.70;;;;;;;;;;5113518;28;24451;-83
2021/12/23 07:47:14;;;;;;;25.95;22.63;;;;;;;;;;5108157;28;24524;-83
2021/12/23 07:49:39;;;;;;;30.23;24.50;;;;;;;;;;5114951;28;24417;-83
2021/12/23 07:52:06;;;;;;;28.00;22.70;;;;;;;;;;5119091;28;24402;-84
2021/12/23 07:54:31;;;;;;;26.88;21.90;;;;;;;;;;5116631;28;24428;-84
2021/12/23 07:56:56;;;;;;;25.40;21.80;;;;;;;;;;5115002;28;24408;-85
2021/12/23 07:59:22;;;;;;;28.73;23.88;;;;;;;;;;5096762;28;24432;-88
2021/12/23 08:01:47;;;;;;;30.33;23.70;;;;;;;;;;5113803;28;24417;-85
2021/12/23 08:04:12;;;;;;;26.17;22.03;;;;;;;;;;5114739;28;24460;-86
2021/12/23 08:06:37;;;;;;;25.17;21.93;;;;;;;;;;5115432;28;24390;-87
2021/12/23 08:09:03;;;;;;;27.57;22.20;;;;;;;;;;5114517;28;24409;-83
2021/12/23 08:11:28;;;;;;;26.60;21.48;;;;;;;;;;5115469;28;24444;-86
2021/12/23 08:13:53;;;;;;;27.60;22.57;;;;;;;;;;5114005;28;24413;-85
2021/12/23 08:16:18;;;;;;;26.30;22.30;;;;;;;;;;5114823;28;24420;-84
2021/12/23 08:18:44;;;;;;;28.03;21.70;;;;;;;;;;5099864;28;24429;-84
2021/12/23 08:21:09;;;;;;;27.40;22.20;;;;;;;;;;5120797;28;24436;-86
2021/12/23 08:23:34;;;;;;;24.45;20.90;;;;;;;;;;5120054;28;24414;-84
2021/12/23 08:26:03;;;;;;;28.43;22.67;;;;;;;;;;5119816;28;24462;-84
2021/12/23 08:28:28;;;;;;;28.88;22.80;;;;;;;;;;5114405;28;24851;-85
2021/12/23 08:30:54;;;;;;;27.50;21.87;;;;;;;;;;5114199;28;24767;-86
2021/12/23 08:33:19;;;;;;;27.83;23.90;;;;;;;;;;5115296;28;24459;-85
2021/12/23 08:35:44;;;;;;;27.93;23.20;;;;;;;;;;5095205;28;24485;-85
2021/12/23 08:38:09;;;;;;;25.30;22.37;;;;;;;;;;5114490;28;24432;-84
2021/12/23 08:40:34;;;;;;;27.20;22.20;;;;;;;;;;5095460;28;24863;-85
2021/12/23 08:43:00;;;;;;;28.30;22.40;;;;;;;;;;5095244;28;24429;-85
2021/12/23 08:45:26;;;;;;;25.27;20.98;;;;;;;;;;5113136;28;24397;-84
2021/12/23 08:47:54;;;;;;;28.13;22.90;;;;;;;;;;5114786;27;24774;-83
2021/12/23 08:50:20;;;;;;;26.42;22.80;;;;;;;;;;5115752;28;24421;-85
2021/12/23 08:52:45;;;;;;;26.05;20.60;;;;;;;;;;5128201;28;24498;-85
2021/12/23 08:55:11;;;;;;;25.27;22.15;;;;;;;;;;5128098;28;24425;-85
2021/12/23 08:57:36;;;;;;;25.67;21.50;;;;;;;;;;5128817;28;24390;-85
2021/12/23 09:00:04;;;;;;;26.60;20.80;;;;;;;;;;5130411;28;24421;-86
2021/12/23 09:02:29;;;;;;;26.38;22.30;;;;;;;;;;5129869;27;24408;-86
2021/12/23 09:04:54;;;;;;;26.23;22.03;;;;;;;;;;5109880;28;24453;-86
2021/12/23 09:07:19;;;;;;;27.47;23.47;;;;;;;;;;5127823;28;24461;-86
2021/12/23 09:09:50;;;;;;;24.80;21.53;;;;;;;;;;5127883;27;24428;-84
2021/12/23 09:12:15;;;;;;;27.60;22.58;;;;;;;;;;5118988;28;24390;-84
2021/12/23 09:14:40;;;;;;;30.20;23.23;;;;;;;;;;5127978;28;24440;-85
2021/12/23 09:17:05;;;;;;;24.80;21.13;;;;;;;;;;5129202;28;24521;-84
2021/12/23 09:19:31;;;;;;;24.60;19.20;;;;;;;;;;5129054;28;24474;-83
2021/12/23 09:21:56;;;;;;;26.77;21.47;;;;;;;;;;5126676;28;24516;-83
2021/12/23 09:24:22;;;;;;;26.38;21.65;;;;;;;;;;5129773;28;24414;-86
2021/12/23 09:26:56;;;;;;;27.43;22.33;;;;;;;;;;5130183;28;24410;-82
2021/12/23 09:34:51;;;;;;;27.05;20.98;;;;;;;;;;5127393;28;24401;-84
2021/12/23 09:37:17;;;;;;;25.90;21.10;;;;;;;;;;5126791;28;24473;-84
2021/12/23 09:39:43;;;;;;;25.25;19.88;;;;;;;;;;5114538;28;24445;-85
2021/12/23 09:42:09;;;;;;;24.60;20.52;;;;;;;;;;5129582;28;24382;-86
2021/12/23 09:44:34;;;;;;;26.13;20.77;;;;;;;;;;5122431;28;24421;-85
2021/12/23 09:47:03;;;;;;;25.13;20.20;;;;;;;;;;5124379;28;24540;-86
2021/12/23 09:49:28;;;;;;;24.10;19.47;;;;;;;;;;5130218;28;24401;-86
2021/12/23 09:51:55;;;;;;;28.27;21.23;;;;;;;;;;5113725;28;24447;-86
2021/12/23 09:54:20;;;;;;;27.85;22.60;;;;;;;;;;5129675;28;24409;-85
2021/12/23 09:56:45;;;;;;;27.00;21.77;;;;;;;;;;5127949;28;24431;-85
2021/12/23 09:59:13;;;;;;;27.40;21.73;;;;;;;;;;5122772;28;24382;-84
2021/12/23 10:01:38;;;;;;;26.13;20.60;;;;;;;;;;5103762;22;24454;-55
2021/12/23 10:04:03;;;;;;;26.08;20.38;;;;;;;;;;5084278;28;24394;-55
2021/12/23 10:06:28;;;;;;;22.57;19.27;;;;;;;;;;5082230;28;24406;-56
2021/12/23 10:08:54;;;;;;;23.97;19.87;;;;;;;;;;5080977;28;24973;-56
2021/12/23 10:31:04;;;;;;;24.75;20.15;;;;;;;;;;5083838;28;24526;-57
2021/12/23 10:33:46;;;;;;;24.58;20.50;;;;;;;;;;5078041;28;24406;-57
2021/12/23 10:38:44;;;;;;;26.30;22.45;;;;;;;;;;5081781;28;24488;-57
2021/12/23 10:41:11;;;;;;;28.65;22.52;;;;;;;;;;5083562;28;24969;-56
2021/12/23 10:43:41;;;;;;;27.05;21.40;;;;;;;;;;5081610;28;24950;-56
2021/12/23 10:46:26;;;;;;;26.42;21.05;;;;;;;;;;5079595;28;24417;-56
2021/12/23 10:49:22;;;;;;;28.27;22.60;;;;;;;;;;5077882;28;24982;-56
2021/12/23 10:52:08;;;;;;;30.08;22.52;;;;;;;;;;5079468;28;24420;-55
2021/12/23 11:00:09;;;;;;;29.97;23.07;;;;;;;;;;5080739;28;24477;-55
2021/12/23 11:02:37;;;;;;;26.90;21.17;;;;;;;;;;5091099;28;24838;-56
2021/12/23 11:05:20;;;;;;;29.63;21.08;;;;;;;;;;5102424;28;24490;-55
2021/12/23 11:08:01;;;;;;;27.60;22.20;;;;;;;;;;5101234;28;24900;-55
2021/12/23 11:38:10;;;;;;;30.67;24.48;;;;;;;;;;5097204;28;24664;-57
2021/12/23 11:43:27;;;;;;;27.75;21.80;;;;;;;;;;5102351;28;24408;-57
2021/12/23 11:45:53;;;;;;;29.25;21.42;;;;;;;;;;5102226;28;24458;-56
2021/12/23 11:48:18;;;;;;;26.50;20.92;;;;;;;;;;5097251;28;24474;-56
2021/12/23 11:50:55;;;;;;;26.80;21.70;;;;;;;;;;5095443;28;24438;-54
2021/12/23 11:53:21;;;;;;;29.35;21.35;;;;;;;;;;5098596;28;24417;-55
2021/12/23 11:55:47;;;;;;;28.40;21.00;;;;;;;;;;5102515;28;24421;-56
2021/12/23 11:58:14;;;;;;;28.65;20.88;;;;;;;;;;5101922;28;24963;-54
2021/12/23 12:00:42;;;;;;;29.27;21.63;;;;;;;;;;5100592;28;24463;-57
2021/12/23 12:03:09;;;;;;;29.15;22.42;;;;;;;;;;5100077;28;24447;-57
2021/12/23 12:05:34;;;;;;;30.08;23.80;;;;;;;;;;5100083;28;25020;-57
2021/12/23 12:08:07;;;;;;;31.27;22.90;;;;;;;;;;5098297;28;24429;-55
2021/12/23 12:10:33;;;;;;;26.17;22.20;;;;;;;;;;5102225;28;25216;-55
2021/12/23 12:13:07;;;;;;;27.40;22.38;;;;;;;;;;5100342;28;24413;-55
2021/12/23 12:15:45;;;;;;;30.88;23.05;;;;;;;;;;5102067;28;24410;-55
2021/12/23 12:18:12;;;;;;;29.05;22.73;;;;;;;;;;5099855;28;24406;-55
2021/12/23 12:20:47;;;;;;;29.92;22.77;;;;;;;;;;5082709;28;24421;-55
2021/12/23 12:23:19;;;;;;;28.48;23.10;;;;;;;;;;5088595;28;24398;-55
2021/12/23 12:25:45;;;;;;;31.10;22.73;;;;;;;;;;5102158;28;24639;-55
2021/12/23 12:28:17;;;;;;;30.90;24.88;;;;;;;;;;5099217;28;24976;-55
2021/12/23 12:30:57;;;;;;;33.58;25.65;;;;;;;;;;5096109;28;24520;-55
2021/12/23 12:33:25;;;;;;;32.73;25.20;;;;;;;;;;5093223;28;25074;-56
2021/12/23 12:36:03;;;;;;;31.45;24.95;;;;;;;;;;5099536;28;24982;-56
2021/12/23 12:38:30;;;;;;;30.58;22.73;;;;;;;;;;5102734;28;24461;-56
2021/12/23 12:41:01;;;;;;;35.15;24.92;;;;;;;;;;5105359;28;24410;-56
2021/12/23 12:43:55;;;;;;;33.67;25.83;;;;;;;;;;5101994;28;25024;-55
2021/12/23 12:46:26;;;;;;;29.60;24.63;;;;;;;;;;5098824;28;24436;-55
2021/12/23 12:48:57;;;;;;;31.85;23.92;;;;;;;;;;5100850;28;24437;-56
2021/12/23 12:51:24;;;;;;;32.58;24.42;;;;;;;;;;5104968;28;24421;-56
2021/12/23 12:53:55;;;;;;;32.53;25.10;;;;;;;;;;5101721;28;24868;-55
2021/12/23 12:56:21;;;;;;;31.90;24.25;;;;;;;;;;5101547;28;24428;-56
2021/12/23 12:58:50;;;;;;;31.92;25.10;;;;;;;;;;5100621;28;24566;-58
2021/12/23 13:01:15;;;;;;;31.63;26.05;;;;;;;;;;5098654;28;24494;-56
2021/12/23 13:03:52;;;;;;;34.15;25.13;;;;;;;;;;5103115;28;24414;-55
2021/12/23 13:06:18;;;;;;;33.42;25.13;;;;;;;;;;5094630;28;24504;-55
2021/12/23 13:08:44;;;;;;;33.08;26.45;;;;;;;;;;5101674;28;24500;-55
2021/12/23 13:11:12;;;;;;;34.58;26.42;;;;;;;;;;5102611;28;24978;-55
2021/12/23 13:13:42;;;;;;;32.88;24.70;;;;;;;;;;5099683;28;24511;-56
2021/12/23 13:16:26;;;;;;;37.35;27.80;;;;;;;;;;5090935;28;25155;-56
2021/12/23 13:19:10;;;;;;;35.13;25.95;;;;;;;;;;5093817;28;24429;-55
2021/12/23 13:21:39;;;;;;;34.45;25.45;;;;;;;;;;5101124;28;24836;-55
2021/12/23 13:24:04;;;;;;;34.03;26.30;;;;;;;;;;5104178;28;24972;-56
2021/12/23 13:26:29;;;;;;;35.07;27.10;;;;;;;;;;5102530;28;24434;-55
2021/12/23 13:28:57;;;;;;;37.43;27.90;;;;;;;;;;5099688;28;24526;-55
2021/12/23 13:31:24;;;;;;;36.17;27.00;;;;;;;;;;5100897;28;24548;-55
2021/12/23 13:33:55;;;;;;;34.72;26.33;;;;;;;;;;5104642;28;24406;-55
2021/12/23 13:36:40;;;;;;;36.03;26.00;;;;;;;;;;5104747;28;24457;-55
2021/12/23 13:39:07;;;;;;;37.35;27.55;;;;;;;;;;5102924;28;24393;-55
2021/12/23 13:41:36;;;;;;;37.55;26.85;;;;;;;;;;5099419;28;24405;-56
2021/12/23 13:44:19;;;;;;;36.85;27.75;;;;;;;;;;5099081;28;24398;-56
2021/12/23 13:47:05;;;;;;;35.28;26.05;;;;;;;;;;5100133;28;24871;-55
2021/12/23 13:49:31;;;;;;;36.17;25.75;;;;;;;;;;5083398;28;24469;-55
2021/12/23 13:51:57;;;;;;;36.17;27.63;;;;;;;;;;5103443;28;24475;-56
2021/12/23 13:54:22;;;;;;;36.63;26.60;;;;;;;;;;5103322;28;24440;-56
2021/12/23 13:56:49;;;;;;;35.85;27.08;;;;;;;;;;5101716;28;24393;-56
2021/12/23 13:59:16;;;;;;;37.72;25.73;;;;;;;;;;5096588;28;24413;-56
2021/12/23 14:02:02;;;;;;;34.75;27.70;;;;;;;;;;5098339;28;24760;-55
2021/12/23 14:04:28;;;;;;;37.85;26.75;;;;;;;;;;5081797;28;24385;-56
2021/12/23 14:06:53;;;;;;;34.67;25.85;;;;;;;;;;5100946;28;24410;-55
2021/12/23 14:09:28;;;;;;;35.13;26.13;;;;;;;;;;5103578;28;24801;-56
2021/12/23 14:11:53;;;;;;;37.22;26.63;;;;;;;;;;5102479;28;24459;-56
2021/12/23 14:14:18;;;;;;;37.95;27.15;;;;;;;;;;5098408;28;24453;-55
2021/12/23 14:16:43;;;;;;;34.70;28.47;;;;;;;;;;5097170;28;24424;-55
2021/12/23 14:19:22;;;;;;;35.60;26.10;;;;;;;;;;5101112;28;25196;-54
2021/12/23 14:24:31;;;;;;;40.10;25.55;;;;;;;;;;5102194;28;24946;-56
2021/12/23 14:26:57;;;;;;;34.73;25.77;;;;;;;;;;5100272;28;24397;-56
2021/12/23 14:29:30;;;;;;;36.55;26.58;;;;;;;;;;5098256;28;24520;-55
2021/12/23 14:31:55;;;;;;;39.72;27.83;;;;;;;;;;5098558;28;24461;-55
2021/12/23 14:34:27;;;;;;;36.63;25.83;;;;;;;;;;5101146;28;24452;-55
2021/12/23 14:36:56;;;;;;;36.35;27.50;;;;;;;;;;5100584;28;24428;-56
2021/12/23 14:39:26;;;;;;;38.10;28.38;;;;;;;;;;5080964;28;25111;-56
2021/12/23 14:41:56;;;;;;;39.20;27.10;;;;;;;;;;5096538;28;24525;-56
2021/12/23 14:44:23;;;;;;;39.28;26.33;;;;;;;;;;5100341;28;24485;-56
2021/12/23 14:46:52;;;;;;;35.92;26.95;;;;;;;;;;5102341;28;24831;-56
2021/12/23 14:52:10;;;;;;;34.85;26.60;;;;;;;;;;5092793;28;24579;-56
2021/12/23 14:54:45;;;;;;;33.33;25.48;;;;;;;;;;5098951;28;24429;-56
2021/12/23 14:57:10;;;;;;;36.58;27.90;;;;;;;;;;5097480;28;25176;-55
2021/12/23 14:59:44;;;;;;;35.33;26.10;;;;;;;;;;5094339;28;24467;-56
2021/12/23 15:02:09;;;;;;;35.75;27.95;;;;;;;;;;5098560;28;24438;-55
2021/12/23 15:04:34;;;;;;;35.65;27.33;;;;;;;;;;5098531;28;25034;-56
2021/12/23 15:07:04;;;;;;;34.50;27.03;;;;;;;;;;5094513;28;24468;-57
2021/12/23 15:09:30;;;;;;;35.97;28.63;;;;;;;;;;5096792;28;25338;-57
2021/12/23 15:12:07;;;;;;;39.83;29.90;;;;;;;;;;5098204;28;24428;-55
2021/12/23 15:14:38;;;;;;;35.05;27.65;;;;;;;;;;5093118;28;24416;-55
2021/12/23 15:17:11;;;;;;;34.17;26.80;;;;;;;;;;5094629;28;24417;-55
2021/12/23 15:19:39;;;;;;;34.63;26.15;;;;;;;;;;5098168;28;24617;-53
2021/12/23 15:22:25;;;;;;;33.05;26.88;;;;;;;;;;5081136;28;24437;-56
2021/12/23 15:25:00;;;;;;;34.65;28.27;;;;;;;;;;5095701;28;24841;-56
2021/12/23 15:27:26;;;;;;;36.60;30.13;;;;;;;;;;5092417;28;24524;-55
2021/12/23 15:29:53;;;;;;;33.65;27.73;;;;;;;;;;5095091;28;24479;-56
2021/12/23 15:32:21;;;;;;;36.65;29.92;;;;;;;;;;5096406;28;24549;-56
2021/12/23 15:34:52;;;;;;;30.92;26.02;;;;;;;;;;5095218;28;24426;-55
2021/12/23 15:37:18;;;;;;;34.83;28.38;;;;;;;;;;5097801;28;24420;-56